createdAt,value
2019-03-25T00:00:43.454Z,98324.67
2019-03-25T00:03:12.918Z,98321.66
2019-03-25T00:05:42.407Z,98317.89
2019-03-25T00:08:11.903Z,98325.77
2019-03-25T00:10:41.371Z,98318.66
2019-03-25T00:13:10.835Z,98317.14
2019-03-25T00:15:40.468Z,98311.72
2019-03-25T00:18:09.933Z,98312.18
2019-03-25T00:20:59.012Z,98311.07
2019-03-25T00:23:47.812Z,98320.39
2019-03-25T00:26:29.439Z,98308.84
2019-03-25T00:29:18.235Z,98036.30
2019-03-25T00:32:07.052Z,98315.87
2019-03-25T00:34:55.858Z,98308.19
2019-03-25T00:37:44.673Z,98309.34
2019-03-25T00:40:33.468Z,98305.45
2019-03-25T00:43:22.283Z,98303.57
2019-03-25T00:46:11.082Z,98301.63
2019-03-25T00:48:59.898Z,98296.92
2019-03-25T00:51:48.697Z,98297.30
2019-03-25T00:54:37.508Z,98290.45
2019-03-25T00:57:45.329Z,98290.12
2019-03-25T01:00:34.143Z,98287.97
2019-03-25T01:03:22.958Z,98284.13
2019-03-25T01:06:11.753Z,97995.64
2019-03-25T01:09:00.566Z,98273.73
2019-03-25T01:11:49.580Z,98180.56
2019-03-25T01:14:58.991Z,98262.53
2019-03-25T01:17:47.783Z,98258.69
2019-03-25T01:20:36.603Z,98248.13
2019-03-25T01:23:25.394Z,98244.41
2019-03-25T01:26:14.278Z,98244.84
2019-03-25T01:28:55.977Z,98027.33
2019-03-25T01:31:44.801Z,98243.28
2019-03-25T01:34:33.614Z,98237.62
2019-03-25T01:37:22.406Z,98232.98
2019-03-25T01:43:26.403Z,98230.78
2019-03-25T01:46:15.217Z,97975.95
2019-03-25T01:49:04.084Z,98218.02
2019-03-25T01:51:52.902Z,98215.80
2019-03-25T01:54:41.722Z,98212.35
2019-03-25T01:57:30.511Z,98209.95
2019-03-25T02:00:19.390Z,98202.37
2019-03-25T02:03:08.225Z,98200.27
2019-03-25T02:05:57.023Z,98195.55
2019-03-25T02:08:45.848Z,98197.80
2019-03-25T02:11:34.644Z,98106.59
2019-03-25T02:14:23.456Z,98182.61
2019-03-25T02:17:12.254Z,98175.17
2019-03-25T02:20:01.076Z,98173.46
2019-03-25T02:22:50.049Z,98049.17
2019-03-25T02:25:40.419Z,98164.52
2019-03-25T02:31:16.949Z,98157.26
2019-03-25T02:34:05.720Z,98157.84
2019-03-25T02:36:54.544Z,98151.41
2019-03-25T02:39:43.332Z,97849.21
2019-03-25T02:42:32.148Z,98139.90
2019-03-25T02:45:20.953Z,98133.13
2019-03-25T02:48:09.761Z,98128.02
2019-03-25T02:50:58.569Z,98122.78
2019-03-25T02:53:47.376Z,98123.70
2019-03-25T02:56:36.193Z,98111.38
2019-03-25T02:59:24.986Z,98094.80
2019-03-25T03:02:13.818Z,98091.30
2019-03-25T03:05:02.617Z,98085.56
2019-03-25T03:07:51.437Z,97906.14
2019-03-25T03:10:40.310Z,98062.74
2019-03-25T03:13:29.125Z,98060.27
2019-03-25T03:16:17.917Z,98060.39
2019-03-25T03:19:06.734Z,98058.32
2019-03-25T03:21:55.531Z,98060.61
2019-03-25T03:24:44.344Z,98058.51
2019-03-25T03:27:33.166Z,98058.82
2019-03-25T03:30:13.118Z,98055.64
2019-03-25T03:33:01.907Z,98053.71
2019-03-25T03:35:50.713Z,98033.65
2019-03-25T03:38:39.530Z,98037.98
2019-03-25T03:41:28.326Z,98031.27
2019-03-25T03:44:17.145Z,98023.47
2019-03-25T03:47:25.056Z,98022.42
2019-03-25T03:50:34.752Z,98016.19
2019-03-25T03:53:23.732Z,98005.58
2019-03-25T03:56:14.362Z,98001.42
2019-03-25T03:59:24.022Z,98007.54
2019-03-25T04:02:13.233Z,97995.20
2019-03-25T04:05:02.015Z,97993.58
2019-03-25T04:07:50.887Z,97928.81
2019-03-25T04:10:39.690Z,97995.92
2019-03-25T04:13:28.506Z,97995.92
2019-03-25T04:16:17.303Z,97991.65
2019-03-25T04:19:25.164Z,97987.89
2019-03-25T04:22:13.946Z,97974.05
2019-03-25T04:25:02.765Z,97975.30
2019-03-25T04:27:51.556Z,97731.27
2019-03-25T04:30:31.363Z,97989.22
2019-03-25T04:33:20.181Z,97845.86
2019-03-25T04:36:08.976Z,97997.41
2019-03-25T04:38:57.787Z,97741.61
2019-03-25T04:41:46.579Z,97996.13
2019-03-25T04:44:35.399Z,97884.02
2019-03-25T04:47:24.197Z,97988.16
2019-03-25T04:50:13.010Z,97980.97
2019-03-25T04:53:01.801Z,97979.23
2019-03-25T04:55:50.634Z,97713.89
2019-03-25T04:58:39.442Z,97956.39
2019-03-25T05:01:47.277Z,97949.10
2019-03-25T05:04:36.090Z,97939.83
2019-03-25T05:07:24.889Z,97751.47
2019-03-25T05:10:13.704Z,97930.75
2019-03-25T05:13:02.501Z,97933.68
2019-03-25T05:15:51.323Z,97932.95
2019-03-25T05:18:40.119Z,97938.91
2019-03-25T05:21:28.931Z,97943.58
2019-03-25T05:24:17.739Z,97946.62
2019-03-25T05:27:06.557Z,97949.95
2019-03-25T05:29:55.357Z,97949.13
2019-03-25T05:32:37.013Z,97952.03
2019-03-25T05:35:25.834Z,97950.47
2019-03-25T05:38:14.621Z,97954.22
2019-03-25T05:41:03.495Z,97959.67
2019-03-25T05:43:52.330Z,97972.05
2019-03-25T05:46:41.121Z,97977.09
2019-03-25T05:49:29.937Z,97884.84
2019-03-25T05:52:18.738Z,98003.08
2019-03-25T05:55:26.896Z,97934.46
2019-03-25T05:58:15.694Z,98020.16
2019-03-25T06:01:04.587Z,97786.88
2019-03-25T06:03:53.513Z,98015.36
2019-03-25T06:06:42.319Z,97931.62
2019-03-25T06:09:31.140Z,98008.59
2019-03-25T06:12:19.934Z,97927.87
2019-03-25T06:15:08.927Z,97993.27
2019-03-25T06:17:57.730Z,97723.88
2019-03-25T06:20:46.561Z,98002.97
2019-03-25T06:23:35.380Z,98005.74
2019-03-25T06:26:24.174Z,98001.59
2019-03-25T06:29:12.997Z,97998.35
2019-03-25T06:31:54.277Z,97996.86
2019-03-25T06:34:43.109Z,97728.72
2019-03-25T06:37:31.925Z,97992.43
2019-03-25T06:40:20.809Z,97988.36
2019-03-25T06:43:09.604Z,98001.47
2019-03-25T06:45:58.415Z,97996.08
2019-03-25T06:48:47.212Z,97816.52
2019-03-25T06:51:36.041Z,98005.95
2019-03-25T06:54:24.820Z,97751.34
2019-03-25T06:57:24.959Z,97985.94
2019-03-25T07:00:25.051Z,97983.86
2019-03-25T07:03:13.869Z,97981.79
2019-03-25T07:09:10.414Z,97992.08
2019-03-25T07:11:59.205Z,97988.32
2019-03-25T07:15:07.108Z,97989.37
2019-03-25T07:18:14.925Z,97996.86
2019-03-25T07:21:03.742Z,97990.59
2019-03-25T07:24:11.559Z,97993.30
2019-03-25T07:27:00.367Z,97835.00
2019-03-25T07:29:41.991Z,97982.20
2019-03-25T07:32:30.786Z,97982.10
2019-03-25T07:35:19.590Z,97906.74
2019-03-25T07:38:08.393Z,97978.09
2019-03-25T07:40:57.207Z,97747.69
2019-03-25T07:43:46.000Z,97999.66
2019-03-25T07:46:34.814Z,97752.34
2019-03-25T07:49:23.615Z,98007.27
2019-03-25T07:52:12.431Z,98015.11
2019-03-25T07:55:01.247Z,98013.13
2019-03-25T08:00:57.824Z,97998.13
2019-03-25T08:03:46.618Z,97993.39
2019-03-25T08:06:35.414Z,97998.50
2019-03-25T08:09:24.222Z,98027.75
2019-03-25T08:12:13.028Z,98008.26
2019-03-25T08:15:01.832Z,98004.81
2019-03-25T08:17:50.626Z,97995.98
2019-03-25T08:20:39.495Z,97997.19
2019-03-25T08:23:28.310Z,97888.62
2019-03-25T08:26:17.098Z,97990.86
2019-03-25T08:29:05.921Z,97986.21
2019-03-25T08:31:47.454Z,97725.25
2019-03-25T08:34:36.271Z,97990.42
2019-03-25T08:37:25.072Z,97995.56
2019-03-25T08:40:32.910Z,98005.32
2019-03-25T08:43:21.709Z,97851.23
2019-03-25T08:46:10.523Z,98008.35
2019-03-25T08:48:59.317Z,98004.08
2019-03-25T08:51:48.130Z,98003.66
2019-03-25T08:54:38.013Z,97735.48
2019-03-25T08:57:27.456Z,98010.03
2019-03-25T09:00:35.515Z,98009.21
2019-03-25T09:03:24.328Z,97899.34
2019-03-25T09:06:13.127Z,98008.34
2019-03-25T09:09:01.936Z,98014.75
2019-03-25T09:11:51.791Z,97997.26
2019-03-25T09:14:41.265Z,97987.89
2019-03-25T09:17:30.077Z,97980.59
2019-03-25T09:20:18.955Z,97988.75
2019-03-25T09:23:07.752Z,97978.86
2019-03-25T09:25:56.577Z,97977.23
2019-03-25T09:28:45.695Z,97986.88
2019-03-25T09:31:36.351Z,97984.85
2019-03-25T09:34:18.024Z,97770.36
2019-03-25T09:37:06.841Z,97976.25
2019-03-25T09:39:55.653Z,97982.09
2019-03-25T09:42:44.461Z,97990.87
2019-03-25T09:45:33.349Z,97987.91
2019-03-25T09:48:22.165Z,97770.70
2019-03-25T09:51:11.023Z,98002.39
2019-03-25T09:53:59.906Z,97749.91
2019-03-25T09:56:48.700Z,97797.02
2019-03-25T09:59:37.580Z,98007.91
2019-03-25T10:02:26.375Z,98013.78
2019-03-25T10:08:09.426Z,98025.38
2019-03-25T10:10:58.240Z,97771.38
2019-03-25T10:13:47.032Z,98041.31
2019-03-25T10:16:35.853Z,98057.56
2019-03-25T10:19:43.673Z,98065.89
2019-03-25T10:22:51.577Z,98081.80
2019-03-25T10:25:40.376Z,98066.40
2019-03-25T10:28:20.115Z,97958.50
2019-03-25T10:34:16.670Z,98050.27
2019-03-25T10:37:05.483Z,98050.52
2019-03-25T10:39:54.272Z,98052.22
2019-03-25T10:42:43.090Z,98067.76
2019-03-25T10:45:31.892Z,97900.23
2019-03-25T10:48:20.699Z,98077.55
2019-03-25T10:51:09.495Z,98050.47
2019-03-25T10:53:58.303Z,98049.97
2019-03-25T10:57:06.167Z,97802.11
2019-03-25T10:59:55.066Z,98049.61
2019-03-25T11:02:43.927Z,98043.44
2019-03-25T11:05:32.796Z,97922.91
2019-03-25T11:08:21.651Z,98018.57
2019-03-25T11:14:05.530Z,98011.34
2019-03-25T11:16:47.399Z,98017.90
2019-03-25T11:19:36.225Z,98012.63
2019-03-25T11:22:25.100Z,98033.72
2019-03-25T11:25:33.803Z,97832.09
2019-03-25T11:28:41.856Z,98049.25
2019-03-25T11:31:30.692Z,97910.66
2019-03-25T11:34:19.546Z,98080.30
2019-03-25T11:37:08.446Z,98082.24
2019-03-25T11:39:57.297Z,97938.96
2019-03-25T11:42:46.141Z,98102.58
2019-03-25T11:45:35.034Z,98104.88
2019-03-25T11:48:23.842Z,98107.22
2019-03-25T11:51:12.641Z,98105.63
2019-03-25T11:54:01.455Z,98099.91
2019-03-25T11:56:50.245Z,98098.47
2019-03-25T11:59:39.062Z,98100.37
2019-03-25T12:02:27.858Z,98110.94
2019-03-25T12:05:16.739Z,98120.14
2019-03-25T12:08:05.625Z,98105.49
2019-03-25T12:10:54.416Z,98094.59
2019-03-25T12:13:43.301Z,97829.06
2019-03-25T12:16:32.120Z,98088.34
2019-03-25T12:19:14.159Z,98092.39
2019-03-25T12:22:02.987Z,98082.52
2019-03-25T12:24:51.785Z,98097.66
2019-03-25T12:27:40.707Z,98090.91
2019-03-25T12:30:29.559Z,98074.78
2019-03-25T12:33:18.371Z,98058.63
2019-03-25T12:39:16.566Z,98061.27
2019-03-25T12:42:05.400Z,97813.12
2019-03-25T12:44:54.223Z,98077.73
2019-03-25T12:50:50.826Z,98008.11
2019-03-25T12:53:39.621Z,98110.17
2019-03-25T12:56:28.441Z,98124.24
2019-03-25T12:59:41.119Z,97981.63
2019-03-25T13:02:26.792Z,98112.72
2019-03-25T13:05:15.660Z,98109.76
2019-03-25T13:08:04.717Z,97865.98
2019-03-25T13:10:53.512Z,98045.84
2019-03-25T13:13:42.324Z,97938.42
2019-03-25T13:16:31.130Z,98099.42
2019-03-25T13:19:12.660Z,98095.20
2019-03-25T13:22:01.461Z,98107.52
2019-03-25T13:24:50.281Z,98116.98
2019-03-25T13:27:39.077Z,98133.59
2019-03-25T13:30:27.891Z,98155.41
2019-03-25T13:33:16.690Z,98175.38
2019-03-25T13:36:05.690Z,98180.67
2019-03-25T13:38:54.489Z,98158.73
2019-03-25T13:41:43.298Z,98172.05
2019-03-25T13:44:32.091Z,98172.56
2019-03-25T13:47:40.001Z,98156.27
2019-03-25T13:50:28.807Z,98092.56
2019-03-25T13:53:17.627Z,98141.54
2019-03-25T13:56:06.432Z,98136.89
2019-03-25T13:58:55.241Z,98129.72
2019-03-25T14:01:44.037Z,98133.91
2019-03-25T14:04:32.853Z,97866.95
2019-03-25T14:07:21.677Z,98138.25
2019-03-25T14:10:10.715Z,98138.60
2019-03-25T14:12:59.535Z,98136.04
2019-03-25T14:15:48.332Z,98143.01
2019-03-25T14:21:24.193Z,98139.39
2019-03-25T14:24:13.026Z,98139.75
2019-03-25T14:27:01.838Z,98154.55
2019-03-25T14:29:50.646Z,98114.83
2019-03-25T14:32:39.470Z,98138.25
2019-03-25T14:35:28.262Z,97989.05
2019-03-25T14:38:17.073Z,98126.45
2019-03-25T14:41:06.191Z,98126.53
2019-03-25T14:43:55.000Z,98117.86
2019-03-25T14:46:43.841Z,97963.42
2019-03-25T14:49:32.620Z,98121.38
2019-03-25T14:52:21.444Z,98134.73
2019-03-25T14:55:10.307Z,98138.48
2019-03-25T14:57:59.250Z,98147.38
2019-03-25T15:00:48.093Z,98176.17
2019-03-25T15:03:36.915Z,98003.23
2019-03-25T15:06:25.736Z,97987.91
2019-03-25T15:09:14.519Z,98206.11
2019-03-25T15:12:03.340Z,98207.84
2019-03-25T15:14:52.127Z,98231.76
2019-03-25T15:17:40.942Z,98003.08
2019-03-25T15:20:23.054Z,98256.86
2019-03-25T15:23:11.864Z,98171.85
2019-03-25T15:26:00.715Z,97996.66
2019-03-25T15:28:49.620Z,98256.66
2019-03-25T15:31:38.455Z,98267.77
2019-03-25T15:34:27.287Z,97976.17
2019-03-25T15:37:16.141Z,98261.39
2019-03-25T15:40:25.901Z,98256.05
2019-03-25T15:43:16.425Z,98263.11
2019-03-25T15:46:05.342Z,98256.51
2019-03-25T15:48:54.169Z,98259.91
2019-03-25T15:51:43.994Z,98259.43
2019-03-25T15:54:33.515Z,98254.66
2019-03-25T15:57:22.317Z,98259.80
2019-03-25T16:00:32.044Z,98265.06
2019-03-25T16:03:20.864Z,98260.70
2019-03-25T16:06:09.964Z,98266.95
2019-03-25T16:11:52.992Z,98138.02
2019-03-25T16:14:41.813Z,98279.61
2019-03-25T16:17:21.627Z,98213.97
2019-03-25T16:20:30.154Z,98284.98
2019-03-25T16:23:18.980Z,98087.05
2019-03-25T16:26:08.158Z,98285.44
2019-03-25T16:28:56.967Z,98041.58
2019-03-25T16:31:45.771Z,98291.86
2019-03-25T16:34:34.587Z,98300.45
2019-03-25T16:37:23.398Z,98307.29
2019-03-25T16:40:12.284Z,98310.70
2019-03-25T16:43:01.086Z,98310.27
2019-03-25T16:45:50.167Z,98307.64
2019-03-25T16:48:38.978Z,98309.31
2019-03-25T16:51:28.054Z,98129.84
2019-03-25T16:54:16.841Z,98317.29
2019-03-25T16:57:05.676Z,98319.47
2019-03-25T16:59:54.493Z,98257.47
2019-03-25T17:02:43.545Z,98338.13
2019-03-25T17:05:32.348Z,98333.97
2019-03-25T17:08:21.138Z,98336.21
2019-03-25T17:14:10.031Z,98346.51
2019-03-25T17:16:58.831Z,98104.73
2019-03-25T17:19:47.647Z,98358.80
2019-03-25T17:22:36.442Z,98359.63
2019-03-25T17:25:25.276Z,98371.10
2019-03-25T17:28:14.427Z,98381.57
2019-03-25T17:31:03.302Z,98387.65
2019-03-25T17:33:52.186Z,98366.64
2019-03-25T17:36:40.983Z,98400.53
2019-03-25T17:39:29.820Z,98407.66
2019-03-25T17:42:18.629Z,98410.27
2019-03-25T17:45:28.339Z,98409.79
2019-03-25T17:48:17.125Z,98284.13
2019-03-25T17:51:06.020Z,98422.63
2019-03-25T17:54:13.833Z,98432.72
2019-03-25T17:57:02.655Z,98432.16
2019-03-25T17:59:51.440Z,98442.83
2019-03-25T18:02:40.260Z,98438.22
2019-03-25T18:05:29.053Z,98441.75
2019-03-25T18:08:17.865Z,98445.25
2019-03-25T18:11:06.698Z,98451.73
2019-03-25T18:16:42.405Z,98468.63
2019-03-25T18:22:40.058Z,98475.63
2019-03-25T18:25:29.509Z,98486.25
2019-03-25T18:28:18.401Z,98491.22
2019-03-25T18:34:15.077Z,98504.07
2019-03-25T18:37:03.863Z,98515.48
2019-03-25T18:39:52.673Z,98268.67
2019-03-25T18:42:41.473Z,98528.98
2019-03-25T18:45:30.299Z,98534.39
2019-03-25T18:48:19.092Z,98533.41
2019-03-25T18:51:07.913Z,98549.06
2019-03-25T18:53:56.776Z,98551.73
2019-03-25T18:59:40.140Z,98551.78
2019-03-25T19:02:29.022Z,98549.38
2019-03-25T19:05:17.828Z,98405.53
2019-03-25T19:08:06.714Z,98554.23
2019-03-25T19:10:55.538Z,98532.52
2019-03-25T19:13:44.358Z,98575.11
2019-03-25T19:16:25.802Z,98564.22
2019-03-25T19:19:14.573Z,98555.52
2019-03-25T19:22:05.328Z,98569.84
2019-03-25T19:24:53.960Z,98322.37
2019-03-25T19:27:42.746Z,98394.89
2019-03-25T19:30:31.581Z,98478.06
2019-03-25T19:33:20.364Z,98584.03
2019-03-25T19:36:09.173Z,98591.86
2019-03-25T19:38:57.986Z,98586.58
2019-03-25T19:41:46.869Z,98352.50
2019-03-25T19:44:35.713Z,98603.21
2019-03-25T19:47:24.502Z,98613.91
2019-03-25T19:53:28.498Z,98625.42
2019-03-25T19:56:17.285Z,98614.38
2019-03-25T19:59:06.122Z,98615.09
2019-03-25T20:01:54.905Z,98621.00
2019-03-25T20:04:43.770Z,98628.75
2019-03-25T20:07:32.555Z,98373.94
2019-03-25T20:10:40.681Z,98629.48
2019-03-25T20:13:29.483Z,98641.55
2019-03-25T20:16:18.291Z,98651.77
2019-03-25T20:19:00.216Z,98645.06
2019-03-25T20:21:49.056Z,98652.56
2019-03-25T20:24:37.832Z,98649.42
2019-03-25T20:27:26.734Z,98659.53
2019-03-25T20:33:44.117Z,98458.57
2019-03-25T20:36:32.932Z,98675.01
2019-03-25T20:39:21.735Z,98677.03
2019-03-25T20:42:10.559Z,98544.07
2019-03-25T20:44:59.373Z,98692.97
2019-03-25T20:47:48.168Z,98687.58
2019-03-25T20:50:37.211Z,98702.29
2019-03-25T20:53:26.048Z,98572.66
2019-03-25T20:56:14.915Z,98719.27
2019-03-25T20:59:03.868Z,98725.58
2019-03-25T21:01:43.616Z,98722.89
2019-03-25T21:04:32.461Z,98721.57
2019-03-25T21:07:21.286Z,98649.27
2019-03-25T21:10:10.305Z,98729.09
2019-03-25T21:12:59.124Z,98471.01
2019-03-25T21:15:47.959Z,98666.17
2019-03-25T21:18:36.757Z,98745.10
2019-03-25T21:21:25.564Z,98750.57
2019-03-25T21:24:14.372Z,98759.77
2019-03-25T21:27:03.221Z,98753.38
2019-03-25T21:29:52.046Z,98750.84
2019-03-25T21:32:40.873Z,98614.13
2019-03-25T21:35:29.663Z,98768.03
2019-03-25T21:38:18.499Z,98768.03
2019-03-25T21:41:07.310Z,98772.59
2019-03-25T21:43:56.142Z,98784.14
2019-03-25T21:46:45.018Z,98782.44
2019-03-25T21:49:33.851Z,98784.30
2019-03-25T21:52:22.994Z,98783.36
2019-03-25T21:55:11.838Z,98788.27
2019-03-25T21:58:19.768Z,98659.06
2019-03-25T22:01:08.646Z,98800.37
2019-03-25T22:03:57.433Z,98802.63
2019-03-25T22:06:46.228Z,98807.03
2019-03-25T22:09:35.041Z,98807.72
2019-03-25T22:12:23.837Z,98675.59
2019-03-25T22:15:32.291Z,98811.23
2019-03-25T22:18:21.092Z,98814.48
2019-03-25T22:21:09.910Z,98614.73
2019-03-25T22:23:59.080Z,98827.14
2019-03-25T22:29:42.593Z,98834.15
2019-03-25T22:32:31.404Z,98846.15
2019-03-25T22:35:20.223Z,98847.30
2019-03-25T22:38:09.019Z,98852.70
2019-03-25T22:40:57.836Z,98854.77
2019-03-25T22:44:05.662Z,98856.15
2019-03-25T22:47:13.500Z,98630.34
2019-03-25T22:50:02.294Z,98860.39
2019-03-25T22:52:51.171Z,98857.99
2019-03-25T22:55:39.998Z,98864.17
2019-03-25T22:58:28.800Z,98862.38
2019-03-25T23:01:10.955Z,98867.85
2019-03-25T23:03:59.751Z,98798.34
2019-03-25T23:06:48.572Z,98871.53
2019-03-25T23:09:37.369Z,98631.11
2019-03-25T23:12:26.191Z,98873.16
2019-03-25T23:15:14.985Z,98798.66
2019-03-25T23:18:04.165Z,98878.53
2019-03-25T23:20:52.992Z,98630.72
2019-03-25T23:23:41.877Z,98880.74
2019-03-25T23:26:30.670Z,98888.27
2019-03-25T23:29:19.492Z,98637.75
2019-03-25T23:32:08.317Z,98894.55
2019-03-25T23:34:57.095Z,98888.41
2019-03-25T23:37:45.885Z,98895.26
2019-03-25T23:40:34.709Z,98895.04
2019-03-25T23:43:23.514Z,98902.25
2019-03-25T23:46:12.345Z,98785.33
2019-03-25T23:52:08.898Z,98664.20
2019-03-25T23:54:57.696Z,98929.91
2019-03-25T23:57:39.255Z,98909.41
